sensor_id;sensor_type;location;lat;lon;timestamp;pressure;altitude;pressure_sealevel;temperature;humidity
64679;BME280;51094;53.864;27.676;2023-02-03T00:01:51;98505.88;;;0.48;80.14
64679;BME280;51094;53.864;27.676;2023-02-03T00:04:18;98503.44;;;0.45;80.74
64679;BME280;51094;53.864;27.676;2023-02-03T00:06:45;98506.84;;;0.46;81.31
64679;BME280;51094;53.864;27.676;2023-02-03T00:09:13;98500.84;;;0.26;81.19
64679;BME280;51094;53.864;27.676;2023-02-03T00:11:40;98514.59;;;0.44;81.75
64679;BME280;51094;53.864;27.676;2023-02-03T00:14:07;98482.19;;;0.24;81.34
64679;BME280;51094;53.864;27.676;2023-02-03T00:16:34;98479.44;;;0.29;81.59
64679;BME280;51094;53.864;27.676;2023-02-03T00:19:02;98350.97;;;-0.57;81.19
64679;BME280;51094;53.864;27.676;2023-02-03T00:21:29;98341.88;;;-0.64;81.24
64679;BME280;51094;53.864;27.676;2023-02-03T00:23:55;98444.28;;;-0.07;81.62
64679;BME280;51094;53.864;27.676;2023-02-03T00:26:22;98516.47;;;0.41;81.61
64679;BME280;51094;53.864;27.676;2023-02-03T00:28:51;98543.00;;;0.38;81.97
64679;BME280;51094;53.864;27.676;2023-02-03T00:31:21;98505.47;;;-0.04;82.67
64679;BME280;51094;53.864;27.676;2023-02-03T00:33:55;98525.47;;;0.29;82.62
64679;BME280;51094;53.864;27.676;2023-02-03T00:36:24;98400.38;;;-0.58;82.95
64679;BME280;51094;53.864;27.676;2023-02-03T00:38:51;98492.25;;;0.07;82.97
64679;BME280;51094;53.864;27.676;2023-02-03T00:41:19;98525.06;;;0.18;83.11
64679;BME280;51094;53.864;27.676;2023-02-03T00:43:47;98287.19;;;-1.23;83.27
64679;BME280;51094;53.864;27.676;2023-02-03T00:46:14;98534.44;;;0.39;83.70
64679;BME280;51094;53.864;27.676;2023-02-03T00:48:41;98416.66;;;-0.41;83.28
64679;BME280;51094;53.864;27.676;2023-02-03T00:51:08;98534.16;;;0.45;83.20
64679;BME280;51094;53.864;27.676;2023-02-03T00:53:35;98420.47;;;-0.29;82.61
64679;BME280;51094;53.864;27.676;2023-02-03T00:56:02;98509.34;;;0.27;83.24
64679;BME280;51094;53.864;27.676;2023-02-03T00:58:29;98390.34;;;-0.43;83.02
64679;BME280;51094;53.864;27.676;2023-02-03T01:00:56;98481.31;;;0.04;83.47
64679;BME280;51094;53.864;27.676;2023-02-03T01:03:23;98541.25;;;0.59;82.76
64679;BME280;51094;53.864;27.676;2023-02-03T01:05:50;98489.78;;;0.26;82.59
64679;BME280;51094;53.864;27.676;2023-02-03T01:08:18;98492.41;;;0.24;82.33
64679;BME280;51094;53.864;27.676;2023-02-03T01:10:45;98251.66;;;-1.27;81.89
64679;BME280;51094;53.864;27.676;2023-02-03T01:13:11;98558.78;;;0.48;82.12
64679;BME280;51094;53.864;27.676;2023-02-03T01:15:44;98354.28;;;-0.77;82.26
64679;BME280;51094;53.864;27.676;2023-02-03T01:18:11;98547.22;;;0.39;81.92
64679;BME280;51094;53.864;27.676;2023-02-03T01:20:38;98497.44;;;0.06;82.15
64679;BME280;51094;53.864;27.676;2023-02-03T01:23:05;98472.50;;;-0.10;82.44
64679;BME280;51094;53.864;27.676;2023-02-03T01:25:34;98420.19;;;-0.43;81.80
64679;BME280;51094;53.864;27.676;2023-02-03T01:28:01;98399.91;;;-0.46;82.38
64679;BME280;51094;53.864;27.676;2023-02-03T01:30:28;98503.94;;;0.35;83.19
64679;BME280;51094;53.864;27.676;2023-02-03T01:32:55;98470.41;;;0.20;82.33
64679;BME280;51094;53.864;27.676;2023-02-03T01:35:22;98523.78;;;0.48;81.42
64679;BME280;51094;53.864;27.676;2023-02-03T01:37:48;98529.56;;;0.33;81.52
64679;BME280;51094;53.864;27.676;2023-02-03T01:40:15;98453.25;;;-0.40;81.16
64679;BME280;51094;53.864;27.676;2023-02-03T01:42:42;98574.69;;;0.34;81.82
64679;BME280;51094;53.864;27.676;2023-02-03T01:45:10;98568.88;;;0.30;81.31
64679;BME280;51094;53.864;27.676;2023-02-03T01:47:45;98578.16;;;-0.11;81.25
64679;BME280;51094;53.864;27.676;2023-02-03T01:50:21;98473.88;;;-0.67;81.51
64679;BME280;51094;53.864;27.676;2023-02-03T01:52:54;98487.78;;;-0.52;81.80
64679;BME280;51094;53.864;27.676;2023-02-03T01:55:29;98555.13;;;-0.09;81.91
64679;BME280;51094;53.864;27.676;2023-02-03T01:58:07;98371.19;;;-1.18;81.83
64679;BME280;51094;53.864;27.676;2023-02-03T02:00:36;98412.00;;;-0.95;82.11
64679;BME280;51094;53.864;27.676;2023-02-03T02:03:03;98573.22;;;0.07;82.57
64679;BME280;51094;53.864;27.676;2023-02-03T02:05:34;98446.25;;;-0.79;82.09
64679;BME280;51094;53.864;27.676;2023-02-03T02:08:04;98582.63;;;0.28;81.73
64679;BME280;51094;53.864;27.676;2023-02-03T02:10:33;98529.63;;;-0.11;82.11
64679;BME280;51094;53.864;27.676;2023-02-03T02:13:02;98490.63;;;-0.38;82.42
64679;BME280;51094;53.864;27.676;2023-02-03T02:26:56;98566.69;;;1.03;82.59
64679;BME280;51094;53.864;27.676;2023-02-03T02:34:52;98586.22;;;1.05;81.28
64679;BME280;51094;53.864;27.676;2023-02-03T02:40:18;98583.78;;;1.02;81.22
64679;BME280;51094;53.864;27.676;2023-02-03T02:43:15;98611.94;;;1.02;80.95
64679;BME280;51094;53.864;27.676;2023-02-03T02:45:53;98671.13;;;0.94;80.92
64679;BME280;51094;53.864;27.676;2023-02-03T02:48:35;98437.81;;;-0.15;80.67
64679;BME280;51094;53.864;27.676;2023-02-03T02:51:05;98595.59;;;0.86;79.60
64679;BME280;51094;53.864;27.676;2023-02-03T02:53:38;98424.03;;;-0.33;80.75
64679;BME280;51094;53.864;27.676;2023-02-03T02:56:07;98485.59;;;-0.17;80.72
64679;BME280;51094;53.864;27.676;2023-02-03T02:58:39;98573.94;;;0.52;81.31
64679;BME280;51094;53.864;27.676;2023-02-03T03:01:08;98497.88;;;-0.05;80.10
64679;BME280;51094;53.864;27.676;2023-02-03T03:03:36;98484.03;;;-0.21;81.06
64679;BME280;51094;53.864;27.676;2023-02-03T03:06:09;98286.53;;;-1.28;80.73
64679;BME280;51094;53.864;27.676;2023-02-03T03:11:12;98436.72;;;-0.52;80.18
64679;BME280;51094;53.864;27.676;2023-02-03T03:13:47;98496.94;;;-0.24;80.47
64679;BME280;51094;53.864;27.676;2023-02-03T03:16:17;98653.19;;;0.54;80.58
64679;BME280;51094;53.864;27.676;2023-02-03T03:18:49;98626.50;;;0.17;79.97
64679;BME280;51094;53.864;27.676;2023-02-03T03:21:24;98460.38;;;-0.92;80.43
64679;BME280;51094;53.864;27.676;2023-02-03T03:23:56;98625.84;;;0.34;80.90
64679;BME280;51094;53.864;27.676;2023-02-03T03:26:45;98637.56;;;0.40;81.10
64679;BME280;51094;53.864;27.676;2023-02-03T03:29:23;98632.75;;;0.32;81.09
64679;BME280;51094;53.864;27.676;2023-02-03T03:31:52;98607.59;;;0.43;80.88
64679;BME280;51094;53.864;27.676;2023-02-03T03:34:19;98490.34;;;-0.30;80.69
64679;BME280;51094;53.864;27.676;2023-02-03T03:37:01;98487.59;;;-0.25;80.77
64679;BME280;51094;53.864;27.676;2023-02-03T03:45:27;98639.78;;;0.89;80.18
64679;BME280;51094;53.864;27.676;2023-02-03T03:48:18;98614.31;;;0.66;80.12
64679;BME280;51094;53.864;27.676;2023-02-03T03:50:51;98640.59;;;0.90;80.23
64679;BME280;51094;53.864;27.676;2023-02-03T03:53:19;98651.38;;;0.98;79.73
64679;BME280;51094;53.864;27.676;2023-02-03T03:55:50;98381.84;;;-0.85;78.36
64679;BME280;51094;53.864;27.676;2023-02-03T03:58:24;98604.88;;;0.46;79.00
64679;BME280;51094;53.864;27.676;2023-02-03T04:00:55;98511.31;;;-0.22;78.88
64679;BME280;51094;53.864;27.676;2023-02-03T04:03:25;98500.84;;;-0.16;78.86
64679;BME280;51094;53.864;27.676;2023-02-03T04:05:54;98655.13;;;0.89;79.22
64679;BME280;51094;53.864;27.676;2023-02-03T04:08:21;98669.81;;;0.86;78.47
64679;BME280;51094;53.864;27.676;2023-02-03T04:10:48;98687.38;;;0.73;78.21
64679;BME280;51094;53.864;27.676;2023-02-03T04:13:14;98644.53;;;0.36;78.67
64679;BME280;51094;53.864;27.676;2023-02-03T04:15:45;98672.66;;;0.36;79.42
64679;BME280;51094;53.864;27.676;2023-02-03T04:18:13;98520.28;;;-0.55;80.17
64679;BME280;51094;53.864;27.676;2023-02-03T04:20:41;98645.56;;;0.09;81.08
64679;BME280;51094;53.864;27.676;2023-02-03T04:23:14;98681.97;;;0.15;81.39
64679;BME280;51094;53.864;27.676;2023-02-03T04:26:00;98687.47;;;0.05;81.63
64679;BME280;51094;53.864;27.676;2023-02-03T04:28:39;98662.38;;;-0.31;82.11
64679;BME280;51094;53.864;27.676;2023-02-03T04:31:06;98654.16;;;-0.39;82.30
64679;BME280;51094;53.864;27.676;2023-02-03T04:33:33;98692.22;;;-0.08;82.93
64679;BME280;51094;53.864;27.676;2023-02-03T04:36:00;98380.31;;;-2.06;83.08
64679;BME280;51094;53.864;27.676;2023-02-03T04:38:27;98689.06;;;-0.15;83.15
64679;BME280;51094;53.864;27.676;2023-02-03T04:40:56;98691.50;;;-0.12;83.36
64679;BME280;51094;53.864;27.676;2023-02-03T04:43:24;98686.72;;;-0.21;82.77
64679;BME280;51094;53.864;27.676;2023-02-03T04:45:51;98665.38;;;-0.67;83.70
64679;BME280;51094;53.864;27.676;2023-02-03T04:48:18;98703.38;;;-0.34;84.70
64679;BME280;51094;53.864;27.676;2023-02-03T04:50:47;98705.88;;;-0.32;84.61
64679;BME280;51094;53.864;27.676;2023-02-03T04:53:13;98630.38;;;-0.88;84.43
64679;BME280;51094;53.864;27.676;2023-02-03T04:55:45;98574.41;;;-1.17;84.91
64679;BME280;51094;53.864;27.676;2023-02-03T04:58:12;98713.91;;;-0.43;84.39
64679;BME280;51094;53.864;27.676;2023-02-03T05:00:39;98710.91;;;-0.54;84.36
64679;BME280;51094;53.864;27.676;2023-02-03T05:03:06;98707.47;;;-0.53;85.10
64679;BME280;51094;53.864;27.676;2023-02-03T05:05:33;98720.16;;;-0.50;85.46
64679;BME280;51094;53.864;27.676;2023-02-03T05:08:00;98725.03;;;-0.44;85.28
64679;BME280;51094;53.864;27.676;2023-02-03T05:10:27;98695.53;;;-0.53;85.66
64679;BME280;51094;53.864;27.676;2023-02-03T05:12:54;98568.81;;;-1.28;85.59
64679;BME280;51094;53.864;27.676;2023-02-03T05:15:21;98700.84;;;-0.59;85.44
64679;BME280;51094;53.864;27.676;2023-02-03T05:17:50;98744.69;;;-0.46;85.10
64679;BME280;51094;53.864;27.676;2023-02-03T05:20:17;98639.72;;;-0.87;85.99
64679;BME280;51094;53.864;27.676;2023-02-03T05:22:44;98522.09;;;-1.54;84.90
64679;BME280;51094;53.864;27.676;2023-02-03T05:25:11;98716.16;;;-0.34;85.20
64679;BME280;51094;53.864;27.676;2023-02-03T05:27:38;98511.81;;;-1.51;84.96
64679;BME280;51094;53.864;27.676;2023-02-03T05:30:07;98701.28;;;-0.46;85.15
64679;BME280;51094;53.864;27.676;2023-02-03T05:32:34;98724.63;;;-0.09;84.43
64679;BME280;51094;53.864;27.676;2023-02-03T05:35:01;98634.00;;;-0.70;84.19
64679;BME280;51094;53.864;27.676;2023-02-03T05:37:27;98742.16;;;0.00;84.02
64679;BME280;51094;53.864;27.676;2023-02-03T05:39:54;98556.06;;;-1.28;82.64
64679;BME280;51094;53.864;27.676;2023-02-03T05:42:46;98626.94;;;-0.87;83.49
64679;BME280;51094;53.864;27.676;2023-02-03T05:45:14;98723.59;;;-0.28;83.11
64679;BME280;51094;53.864;27.676;2023-02-03T05:47:41;98756.28;;;-0.13;83.43
64679;BME280;51094;53.864;27.676;2023-02-03T05:50:08;98759.47;;;-0.06;83.68
64679;BME280;51094;53.864;27.676;2023-02-03T05:52:35;98779.06;;;-0.07;83.42
64679;BME280;51094;53.864;27.676;2023-02-03T05:55:02;98769.91;;;-0.12;83.15
64679;BME280;51094;53.864;27.676;2023-02-03T05:57:29;98626.53;;;-0.99;83.16
64679;BME280;51094;53.864;27.676;2023-02-03T05:59:58;98663.00;;;-0.96;82.27
64679;BME280;51094;53.864;27.676;2023-02-03T06:02:24;98779.19;;;-0.10;83.15
64679;BME280;51094;53.864;27.676;2023-02-03T06:04:51;98575.03;;;-1.36;82.80
64679;BME280;51094;53.864;27.676;2023-02-03T06:07:18;98672.25;;;-0.69;80.26
64679;BME280;51094;53.864;27.676;2023-02-03T06:09:45;98796.34;;;-0.13;80.05
64679;BME280;51094;53.864;27.676;2023-02-03T06:12:12;98666.84;;;-1.09;80.19
64679;BME280;51094;53.864;27.676;2023-02-03T06:14:40;98800.94;;;-0.23;80.84
64679;BME280;51094;53.864;27.676;2023-02-03T06:17:07;98635.94;;;-1.53;80.08
64679;BME280;51094;53.864;27.676;2023-02-03T06:19:34;98690.53;;;-0.81;80.04
64679;BME280;51094;53.864;27.676;2023-02-03T06:22:01;98550.06;;;-1.77;78.94
64679;BME280;51094;53.864;27.676;2023-02-03T06:24:28;98809.59;;;-0.27;79.70
64679;BME280;51094;53.864;27.676;2023-02-03T06:26:55;98755.06;;;-0.51;79.94
64679;BME280;51094;53.864;27.676;2023-02-03T06:29:21;98824.44;;;-0.13;79.08
64679;BME280;51094;53.864;27.676;2023-02-03T06:31:48;98810.41;;;-0.26;78.41
64679;BME280;51094;53.864;27.676;2023-02-03T06:34:15;98819.31;;;-0.38;78.70
64679;BME280;51094;53.864;27.676;2023-02-03T06:36:42;98822.84;;;-0.42;77.79
64679;BME280;51094;53.864;27.676;2023-02-03T06:39:09;98817.97;;;-0.48;78.08
64679;BME280;51094;53.864;27.676;2023-02-03T06:41:36;98827.22;;;-0.44;78.77
64679;BME280;51094;53.864;27.676;2023-02-03T06:44:03;98648.38;;;-1.42;78.75
64679;BME280;51094;53.864;27.676;2023-02-03T06:46:30;98822.84;;;-0.42;77.02
64679;BME280;51094;53.864;27.676;2023-02-03T06:49:00;98793.81;;;-0.64;76.69
64679;BME280;51094;53.864;27.676;2023-02-03T06:51:27;98774.56;;;-0.75;76.91
64679;BME280;51094;53.864;27.676;2023-02-03T06:53:54;98805.59;;;-0.60;76.44
64679;BME280;51094;53.864;27.676;2023-02-03T06:56:21;98812.47;;;-0.62;75.99
64679;BME280;51094;53.864;27.676;2023-02-03T06:58:47;98839.28;;;-0.49;76.73
64679;BME280;51094;53.864;27.676;2023-02-03T07:01:14;98850.19;;;-0.44;76.07
64679;BME280;51094;53.864;27.676;2023-02-03T07:03:41;98839.06;;;-0.43;76.44
64679;BME280;51094;53.864;27.676;2023-02-03T07:06:08;98829.88;;;-0.47;75.71
64679;BME280;51094;53.864;27.676;2023-02-03T07:08:35;98803.63;;;-0.52;75.67
64679;BME280;51094;53.864;27.676;2023-02-03T07:11:02;98858.56;;;-0.14;75.42
64679;BME280;51094;53.864;27.676;2023-02-03T07:13:29;98856.72;;;-0.11;74.93
64679;BME280;51094;53.864;27.676;2023-02-03T07:15:56;98810.03;;;-0.41;75.10
64679;BME280;51094;53.864;27.676;2023-02-03T07:18:24;98829.13;;;-0.26;75.05
64679;BME280;51094;53.864;27.676;2023-02-03T07:21:12;98840.91;;;-0.22;73.89
64679;BME280;51094;53.864;27.676;2023-02-03T07:23:39;98837.88;;;-0.33;73.50
64679;BME280;51094;53.864;27.676;2023-02-03T07:26:07;98863.13;;;-0.24;73.83
64679;BME280;51094;53.864;27.676;2023-02-03T07:28:35;98788.31;;;-0.79;72.88
64679;BME280;51094;53.864;27.676;2023-02-03T07:31:02;98864.50;;;-0.40;73.39
64679;BME280;51094;53.864;27.676;2023-02-03T07:33:36;98873.81;;;-0.38;73.81
64679;BME280;51094;53.864;27.676;2023-02-03T07:36:04;98878.63;;;-0.28;72.92
64679;BME280;51094;53.864;27.676;2023-02-03T07:38:31;98875.31;;;-0.32;72.80
64679;BME280;51094;53.864;27.676;2023-02-03T07:40:59;98800.19;;;-0.78;73.49
64679;BME280;51094;53.864;27.676;2023-02-03T07:43:25;98849.78;;;-0.32;73.12
64679;BME280;51094;53.864;27.676;2023-02-03T07:45:53;98849.56;;;-0.26;71.90
64679;BME280;51094;53.864;27.676;2023-02-03T07:48:20;98804.31;;;-0.74;71.40
64679;BME280;51094;53.864;27.676;2023-02-03T07:50:47;98827.25;;;-0.46;72.46
64679;BME280;51094;53.864;27.676;2023-02-03T07:53:15;98815.97;;;-0.65;71.52
64679;BME280;51094;53.864;27.676;2023-02-03T07:55:42;98733.25;;;-1.12;72.12
64679;BME280;51094;53.864;27.676;2023-02-03T07:58:09;98881.41;;;-0.10;72.04
64679;BME280;51094;53.864;27.676;2023-02-03T08:00:39;98883.81;;;-0.05;71.16
64679;BME280;51094;53.864;27.676;2023-02-03T08:03:06;98905.50;;;-0.17;70.87
64679;BME280;51094;53.864;27.676;2023-02-03T08:05:33;98885.34;;;-0.26;70.56
64679;BME280;51094;53.864;27.676;2023-02-03T08:08:12;98887.16;;;-0.29;70.22
64679;BME280;51094;53.864;27.676;2023-02-03T08:11:01;98882.88;;;-0.29;69.61
64679;BME280;51094;53.864;27.676;2023-02-03T08:13:29;98884.66;;;-0.31;70.82
64679;BME280;51094;53.864;27.676;2023-02-03T08:15:56;98828.69;;;-0.63;70.59
64679;BME280;51094;53.864;27.676;2023-02-03T08:18:23;98891.09;;;-0.19;70.60
64679;BME280;51094;53.864;27.676;2023-02-03T08:20:50;98889.75;;;-0.05;69.95
64679;BME280;51094;53.864;27.676;2023-02-03T08:23:18;98806.44;;;-0.60;70.15
64679;BME280;51094;53.864;27.676;2023-02-03T08:25:51;98803.84;;;-0.34;69.66
64679;BME280;51094;53.864;27.676;2023-02-03T08:28:19;98868.38;;;-0.02;67.32
64679;BME280;51094;53.864;27.676;2023-02-03T08:30:46;98876.50;;;-0.16;67.75
64679;BME280;51094;53.864;27.676;2023-02-03T08:33:13;98817.59;;;-0.89;67.60
64679;BME280;51094;53.864;27.676;2023-02-03T08:35:45;98861.97;;;-0.93;67.06
64679;BME280;51094;53.864;27.676;2023-02-03T08:38:12;98912.69;;;-0.54;68.32
64679;BME280;51094;53.864;27.676;2023-02-03T08:40:39;98901.22;;;-0.43;68.04
64679;BME280;51094;53.864;27.676;2023-02-03T08:43:06;98916.84;;;-0.25;68.24
64679;BME280;51094;53.864;27.676;2023-02-03T08:45:33;98909.13;;;-0.24;67.94
64679;BME280;51094;53.864;27.676;2023-02-03T08:48:01;98773.44;;;-0.91;67.34
64679;BME280;51094;53.864;27.676;2023-02-03T08:50:28;98838.03;;;-0.38;66.58
64679;BME280;51094;53.864;27.676;2023-02-03T08:52:56;98911.53;;;0.06;63.98
64679;BME280;51094;53.864;27.676;2023-02-03T08:55:23;98888.19;;;-0.09;65.81
64679;BME280;51094;53.864;27.676;2023-02-03T08:57:50;98856.78;;;-0.12;65.51
64679;BME280;51094;53.864;27.676;2023-02-03T09:00:17;98912.44;;;0.29;65.46
64679;BME280;51094;53.864;27.676;2023-02-03T09:02:44;98862.44;;;0.21;64.92
64679;BME280;51094;53.864;27.676;2023-02-03T09:05:10;98853.31;;;0.39;65.60
64679;BME280;51094;53.864;27.676;2023-02-03T09:07:38;98910.59;;;1.26;64.95
64679;BME280;51094;53.864;27.676;2023-02-03T09:10:05;98911.56;;;1.44;64.06
64679;BME280;51094;53.864;27.676;2023-02-03T09:12:32;98910.75;;;1.65;62.84
64679;BME280;51094;53.864;27.676;2023-02-03T09:14:59;98814.16;;;1.04;62.13
64679;BME280;51094;53.864;27.676;2023-02-03T09:17:26;98874.22;;;1.60;59.86
64679;BME280;51094;53.864;27.676;2023-02-03T09:19:57;98908.44;;;1.80;60.70
64679;BME280;51094;53.864;27.676;2023-02-03T09:22:24;98884.34;;;1.42;59.22
64679;BME280;51094;53.864;27.676;2023-02-03T09:24:51;98900.66;;;1.61;60.85
64679;BME280;51094;53.864;27.676;2023-02-03T09:27:18;98905.09;;;1.78;61.07
64679;BME280;51094;53.864;27.676;2023-02-03T09:29:45;98887.09;;;1.59;59.42
64679;BME280;51094;53.864;27.676;2023-02-03T09:32:11;98891.97;;;1.65;60.61
64679;BME280;51094;53.864;27.676;2023-02-03T09:34:41;98845.16;;;1.40;60.85
64679;BME280;51094;53.864;27.676;2023-02-03T09:37:08;98793.13;;;1.17;60.12
64679;BME280;51094;53.864;27.676;2023-02-03T09:39:34;98822.88;;;1.62;60.56
64679;BME280;51094;53.864;27.676;2023-02-03T09:42:27;98793.66;;;1.46;59.66
64679;BME280;51094;53.864;27.676;2023-02-03T09:45:25;98808.38;;;1.20;59.30
64679;BME280;51094;53.864;27.676;2023-02-03T09:47:52;98890.31;;;1.42;59.23
64679;BME280;51094;53.864;27.676;2023-02-03T09:50:23;98771.28;;;0.43;59.93
64679;BME280;51094;53.864;27.676;2023-02-03T09:52:52;98888.00;;;1.14;60.12
64679;BME280;51094;53.864;27.676;2023-02-03T09:57:57;98898.88;;;1.41;60.15
64679;BME280;51094;53.864;27.676;2023-02-03T10:00:58;98868.25;;;1.60;59.41
64679;BME280;51094;53.864;27.676;2023-02-03T10:03:43;98882.78;;;2.20;58.43
64679;BME280;51094;53.864;27.676;2023-02-03T10:19:36;98879.03;;;1.88;55.64
64679;BME280;51094;53.864;27.676;2023-02-03T10:22:05;98779.06;;;1.27;54.27
64679;BME280;51094;53.864;27.676;2023-02-03T10:24:42;98872.50;;;1.39;53.63
64679;BME280;51094;53.864;27.676;2023-02-03T10:27:21;98883.38;;;1.86;55.62
64679;BME280;51094;53.864;27.676;2023-02-03T10:30:03;98874.56;;;2.32;55.68
64679;BME280;51094;53.864;27.676;2023-02-03T10:32:30;98823.50;;;2.08;54.75
64679;BME280;51094;53.864;27.676;2023-02-03T10:34:57;98811.22;;;1.75;53.37
64679;BME280;51094;53.864;27.676;2023-02-03T10:37:35;98878.06;;;2.11;54.03
64679;BME280;51094;53.864;27.676;2023-02-03T10:40:11;98841.59;;;2.05;54.64
64679;BME280;51094;53.864;27.676;2023-02-03T10:42:39;98809.59;;;1.93;53.22
64679;BME280;51094;53.864;27.676;2023-02-03T10:45:25;98815.88;;;2.06;53.96
64679;BME280;51094;53.864;27.676;2023-02-03T10:47:54;98864.81;;;2.41;53.27
64679;BME280;51094;53.864;27.676;2023-02-03T10:50:24;98871.00;;;2.55;53.28
64679;BME280;51094;53.864;27.676;2023-02-03T10:55:48;98864.91;;;2.77;53.21
64679;BME280;51094;53.864;27.676;2023-02-03T10:58:17;98865.66;;;2.79;53.30
64679;BME280;51094;53.864;27.676;2023-02-03T11:00:53;98899.69;;;2.84;52.54
64679;BME280;51094;53.864;27.676;2023-02-03T11:03:27;98863.91;;;2.60;53.19
64679;BME280;51094;53.864;27.676;2023-02-03T11:06:13;98845.63;;;2.87;53.28
64679;BME280;51094;53.864;27.676;2023-02-03T11:08:43;98867.34;;;3.34;52.68
64679;BME280;51094;53.864;27.676;2023-02-03T11:11:32;98797.13;;;3.51;52.18
64679;BME280;51094;53.864;27.676;2023-02-03T11:16:32;98812.13;;;4.11;50.22
64679;BME280;51094;53.864;27.676;2023-02-03T11:24:09;98667.00;;;4.45;48.56
64679;BME280;51094;53.864;27.676;2023-02-03T11:29:29;98841.09;;;6.02;46.42
64679;BME280;51094;53.864;27.676;2023-02-03T11:31:59;98842.50;;;6.36;45.86
64679;BME280;51094;53.864;27.676;2023-02-03T11:34:33;98637.28;;;5.57;46.05
64679;BME280;51094;53.864;27.676;2023-02-03T11:37:53;98843.13;;;6.53;44.38
64679;BME280;51094;53.864;27.676;2023-02-03T11:53:31;98856.84;;;2.84;48.26
64679;BME280;51094;53.864;27.676;2023-02-03T11:56:30;98859.00;;;2.56;49.08
64679;BME280;51094;53.864;27.676;2023-02-03T12:02:07;98846.06;;;1.79;50.45
64679;BME280;51094;53.864;27.676;2023-02-03T12:05:07;98847.22;;;1.92;51.43
64679;BME280;51094;53.864;27.676;2023-02-03T12:10:51;98838.16;;;1.65;51.80
64679;BME280;51094;53.864;27.676;2023-02-03T12:16:18;98844.16;;;1.64;51.79
64679;BME280;51094;53.864;27.676;2023-02-03T12:19:13;98839.81;;;1.66;52.61
64679;BME280;51094;53.864;27.676;2023-02-03T12:21:56;98846.19;;;1.56;52.14
64679;BME280;51094;53.864;27.676;2023-02-03T12:24:39;98846.47;;;1.70;52.73
64679;BME280;51094;53.864;27.676;2023-02-03T12:30:02;98828.50;;;1.08;52.25
64679;BME280;51094;53.864;27.676;2023-02-03T12:32:36;98761.56;;;0.95;52.57
64679;BME280;51094;53.864;27.676;2023-02-03T12:35:35;98839.78;;;1.46;52.42
64679;BME280;51094;53.864;27.676;2023-02-03T12:40:59;98446.41;;;-1.05;51.27
64679;BME280;51094;53.864;27.676;2023-02-03T12:46:22;98855.41;;;0.96;51.89
64679;BME280;51094;53.864;27.676;2023-02-03T12:49:12;98840.03;;;0.96;52.01
64679;BME280;51094;53.864;27.676;2023-02-03T12:51:50;98762.66;;;0.22;51.57
64679;BME280;51094;53.864;27.676;2023-02-03T12:54:53;98831.44;;;0.53;52.42
64679;BME280;51094;53.864;27.676;2023-02-03T12:57:31;98829.53;;;0.58;53.29
64679;BME280;51094;53.864;27.676;2023-02-03T13:03:01;98833.47;;;0.67;53.30
64679;BME280;51094;53.864;27.676;2023-02-03T13:08:22;98793.31;;;0.46;54.10
64679;BME280;51094;53.864;27.676;2023-02-03T13:11:01;98825.22;;;0.82;54.30
64679;BME280;51094;53.864;27.676;2023-02-03T13:13:37;98822.22;;;0.93;53.63
64679;BME280;51094;53.864;27.676;2023-02-03T13:16:07;98826.13;;;1.03;54.15
64679;BME280;51094;53.864;27.676;2023-02-03T13:18:42;98653.13;;;0.12;54.14
64679;BME280;51094;53.864;27.676;2023-02-03T13:21:14;98745.72;;;0.43;53.86
64679;BME280;51094;53.864;27.676;2023-02-03T13:23:42;98760.38;;;0.38;54.11
64679;BME280;51094;53.864;27.676;2023-02-03T13:29:12;98813.09;;;0.42;53.17
64679;BME280;51094;53.864;27.676;2023-02-03T13:31:51;98812.19;;;0.20;54.28
64679;BME280;51094;53.864;27.676;2023-02-03T13:42:59;98794.53;;;0.37;54.78
64679;BME280;51094;53.864;27.676;2023-02-03T13:45:48;98690.59;;;-0.57;53.78
64679;BME280;51094;53.864;27.676;2023-02-03T13:48:22;98737.22;;;-0.27;54.79
64679;BME280;51094;53.864;27.676;2023-02-03T13:51:00;98619.91;;;-1.05;54.62
64679;BME280;51094;53.864;27.676;2023-02-03T13:53:34;98799.94;;;0.05;54.79
64679;BME280;51094;53.864;27.676;2023-02-03T13:56:04;98829.63;;;0.09;54.65
64679;BME280;51094;53.864;27.676;2023-02-03T13:58:37;98794.47;;;0.15;54.63
64679;BME280;51094;53.864;27.676;2023-02-03T14:03:56;98797.19;;;0.11;54.43
64679;BME280;51094;53.864;27.676;2023-02-03T14:09:22;98797.78;;;-0.06;53.88
64679;BME280;51094;53.864;27.676;2023-02-03T14:11:51;98813.81;;;-0.26;54.16
64679;BME280;51094;53.864;27.676;2023-02-03T14:16:51;98744.22;;;-0.57;54.86
64679;BME280;51094;53.864;27.676;2023-02-03T14:22:01;98762.78;;;-0.52;55.06
64679;BME280;51094;53.864;27.676;2023-02-03T14:24:38;98760.09;;;-0.74;55.41
64679;BME280;51094;53.864;27.676;2023-02-03T14:27:24;98803.59;;;-0.51;56.23
64679;BME280;51094;53.864;27.676;2023-02-03T14:30:07;98735.56;;;-1.05;56.21
64679;BME280;51094;53.864;27.676;2023-02-03T14:32:55;98688.00;;;-1.32;56.47
64679;BME280;51094;53.864;27.676;2023-02-03T14:35:34;98805.00;;;-0.69;56.77
64679;BME280;51094;53.864;27.676;2023-02-03T14:38:13;98707.66;;;-1.36;57.18
64679;BME280;51094;53.864;27.676;2023-02-03T14:59:44;98745.28;;;-0.15;58.55
64679;BME280;51094;53.864;27.676;2023-02-03T15:02:21;98574.34;;;-1.16;58.79
64679;BME280;51094;53.864;27.676;2023-02-03T15:05:34;98814.38;;;0.30;58.81
64679;BME280;51094;53.864;27.676;2023-02-03T15:12:46;98789.81;;;0.48;59.06
64679;BME280;51094;53.864;27.676;2023-02-03T15:15:22;98827.38;;;0.48;59.08
64679;BME280;51094;53.864;27.676;2023-02-03T15:17:54;98794.63;;;0.34;58.33
64679;BME280;51094;53.864;27.676;2023-02-03T15:20:37;98794.47;;;0.15;58.36
64679;BME280;51094;53.864;27.676;2023-02-03T15:23:45;98639.13;;;-0.95;59.31
64679;BME280;51094;53.864;27.676;2023-02-03T15:26:19;98556.94;;;-1.29;59.17
64679;BME280;51094;53.864;27.676;2023-02-03T15:28:57;98785.69;;;-0.01;58.84
64679;BME280;51094;53.864;27.676;2023-02-03T15:31:30;98769.28;;;-0.19;57.78
64679;BME280;51094;53.864;27.676;2023-02-03T15:34:05;98768.00;;;-0.55;58.07
64679;BME280;51094;53.864;27.676;2023-02-03T15:36:40;98662.56;;;-0.84;57.86
64679;BME280;51094;53.864;27.676;2023-02-03T15:42:19;98538.75;;;-1.44;57.98